Time,TemperatureF,DewpointF,PressureIn,WindDirection,WindDirectionDegrees,WindSpeedMPH,WindSpeedGustMPH,Humidity,HourlyPrecipIn,Conditions,Clouds,dailyrainin,SoftwareType,DateUTC
2013-03-05 00:09:00,30.2,20.0,29.98,South,169,0.0,1.0,66,0.00,,,0.00,weatherlink.com 1.10,2013-03-05 05:09:00,
2013-03-05 00:24:00,29.9,20.0,29.99,WNW,298,0.0,1.0,66,0.00,,,0.00,weatherlink.com 1.10,2013-03-05 05:24:00,
2013-03-05 00:39:00,30.2,20.0,30.00,SW,225,0.0,1.0,66,0.00,,,0.00,weatherlink.com 1.10,2013-03-05 05:39:00,
2013-03-05 00:54:00,30.4,21.0,30.01,NE,46,0.0,1.0,67,0.00,,,0.00,weatherlink.com 1.10,2013-03-05 05:54:00,
2013-03-05 01:09:00,30.5,20.0,30.01,ESE,118,0.0,1.0,66,0.00,,,0.00,weatherlink.com 1.10,2013-03-05 06:09:00,
2013-03-05 01:24:00,30.5,21.0,30.02,SSW,193,0.0,2.0,67,0.00,,,0.00,weatherlink.com 1.10,2013-03-05 06:24:00,
2013-03-05 01:39:00,30.5,20.0,30.01,West,259,0.0,1.0,66,0.00,,,0.00,weatherlink.com 1.10,2013-03-05 06:39:00,
2013-03-05 01:55:00,31.0,20.0,30.01,East,99,0.0,1.0,65,0.00,,,0.00,weatherlink.com 1.10,2013-03-05 06:55:00,
2013-03-05 02:09:00,30.6,21.0,30.01,SE,136,1.0,2.0,67,0.00,,,0.00,weatherlink.com 1.10,2013-03-05 07:09:00,
2013-03-05 02:25:00,30.6,21.0,30.01,SSE,153,0.0,1.0,67,0.00,,,0.00,weatherlink.com 1.10,2013-03-05 07:25:00,
2013-03-05 02:40:00,30.8,21.0,30.00,SSW,211,0.0,2.0,67,0.00,,,0.00,weatherlink.com 1.10,2013-03-05 07:40:00,
2013-03-05 02:55:00,30.6,21.0,30.00,NE,41,0.0,1.0,67,0.00,,,0.00,weatherlink.com 1.10,2013-03-05 07:55:00,
2013-03-05 03:10:00,29.5,20.0,30.00,NE,40,0.0,0.0,69,0.00,,,0.00,weatherlink.com 1.10,2013-03-05 08:10:00,
2013-03-05 03:25:00,28.3,21.0,30.01,ENE,58,0.0,0.0,73,0.00,,,0.00,weatherlink.com 1.10,2013-03-05 08:25:00,
2013-03-05 03:40:00,28.0,21.0,30.01,ENE,58,0.0,0.0,74,0.00,,,0.00,weatherlink.com 1.10,2013-03-05 08:40:00,
2013-03-05 03:55:00,27.6,21.0,30.01,SSW,201,0.0,0.0,75,0.00,,,0.00,weatherlink.com 1.10,2013-03-05 08:55:00,
2013-03-05 04:10:00,28.6,21.0,30.02,South,173,0.0,0.0,73,0.00,,,0.00,weatherlink.com 1.10,2013-03-05 09:10:00,
2013-03-05 04:25:00,28.2,21.0,30.02,SW,217,0.0,0.0,74,0.00,,,0.00,weatherlink.com 1.10,2013-03-05 09:25:00,
2013-03-05 04:40:00,28.1,21.0,30.03,ESE,111,0.0,0.0,74,0.00,,,0.00,weatherlink.com 1.10,2013-03-05 09:40:00,
2013-03-05 04:55:00,28.4,21.0,30.03,ESE,108,0.0,0.0,73,0.00,,,0.00,weatherlink.com 1.10,2013-03-05 09:55:00,
2013-03-05 05:10:00,28.5,21.0,30.03,East,87,0.0,0.0,72,0.00,,,0.00,weatherlink.com 1.10,2013-03-05 10:10:00,
2013-03-05 05:25:00,28.7,21.0,30.03,WNW,290,0.0,1.0,72,0.00,,,0.00,weatherlink.com 1.10,2013-03-05 10:25:00,
2013-03-05 05:40:00,28.8,21.0,30.03,NNW,327,0.0,1.0,72,0.00,,,0.00,weatherlink.com 1.10,2013-03-05 10:40:00,
2013-03-05 05:55:00,28.2,21.0,30.04,NNW,336,0.0,0.0,74,0.00,,,0.00,weatherlink.com 1.10,2013-03-05 10:55:00,
2013-03-05 06:10:00,26.9,21.0,30.04,NNW,336,0.0,0.0,78,0.00,,,0.00,weatherlink.com 1.10,2013-03-05 11:10:00,
2013-03-05 06:25:00,26.5,21.0,30.04,NE,51,0.0,1.0,79,0.00,,,0.00,weatherlink.com 1.10,2013-03-05 11:25:00,
2013-03-05 06:40:00,26.5,21.0,30.04,NE,51,0.0,0.0,78,0.00,,,0.00,weatherlink.com 1.10,2013-03-05 11:40:00,
2013-03-05 06:55:00,27.8,21.0,30.04,NE,52,0.0,0.0,77,0.00,,,0.00,weatherlink.com 1.10,2013-03-05 11:55:00,
2013-03-05 07:10:00,29.8,22.0,30.04,North,9,0.0,2.0,72,0.00,,,0.00,weatherlink.com 1.10,2013-03-05 12:10:00,
2013-03-05 07:25:00,30.2,21.0,30.04,NE,39,0.0,2.0,69,0.00,,,0.00,weatherlink.com 1.10,2013-03-05 12:25:00,
2013-03-05 07:40:00,30.9,21.0,30.04,NNW,342,1.0,3.0,67,0.00,,,0.00,weatherlink.com 1.10,2013-03-05 12:40:00,
2013-03-05 07:55:00,31.3,21.0,30.05,NNW,328,0.0,2.0,66,0.00,,,0.00,weatherlink.com 1.10,2013-03-05 12:55:00,
2013-03-05 08:10:00,32.2,21.0,30.06,North,350,0.0,4.0,64,0.00,,,0.00,weatherlink.com 1.10,2013-03-05 13:10:00,
2013-03-05 08:25:00,33.0,21.0,30.05,NNW,335,2.0,5.0,62,0.00,,,0.00,weatherlink.com 1.10,2013-03-05 13:25:00,
2013-03-05 08:40:00,33.6,22.0,30.05,North,1,2.0,4.0,62,0.00,,,0.00,weatherlink.com 1.10,2013-03-05 13:40:00,
2013-03-05 08:55:00,35.5,22.0,30.05,NW,319,1.0,4.0,58,0.00,,,0.00,weatherlink.com 1.10,2013-03-05 13:55:00,
2013-03-05 09:10:00,35.8,22.0,30.05,NNW,328,3.0,8.0,57,0.00,,,0.00,weatherlink.com 1.10,2013-03-05 14:10:00,
2013-03-05 09:25:00,36.8,22.0,30.05,NNE,16,1.0,5.0,55,0.00,,,0.00,weatherlink.com 1.10,2013-03-05 14:25:00,
2013-03-05 09:40:00,37.7,22.0,30.05,SE,129,0.0,5.0,54,0.00,,,0.00,weatherlink.com 1.10,2013-03-05 14:40:00,
2013-03-05 09:55:00,38.0,22.0,30.05,SW,222,0.0,5.0,52,0.00,,,0.00,weatherlink.com 1.10,2013-03-05 14:55:00,
2013-03-05 10:10:00,37.9,20.0,30.04,NNW,338,1.0,9.0,49,0.00,,,0.00,weatherlink.com 1.10,2013-03-05 15:10:00,
2013-03-05 10:26:00,38.3,21.0,30.04,NW,322,6.0,8.0,50,0.00,,,0.00,weatherlink.com 1.10,2013-03-05 15:26:00,
2013-03-05 10:41:00,38.5,20.0,30.03,NNW,328,8.0,10.0,47,0.00,,,0.00,weatherlink.com 1.10,2013-03-05 15:41:00,
2013-03-05 10:56:00,38.6,19.0,30.02,NNW,330,1.0,8.0,46,0.00,,,0.00,weatherlink.com 1.10,2013-03-05 15:56:00,
2013-03-05 11:11:00,38.9,21.0,30.02,NW,323,1.0,8.0,48,0.00,,,0.00,weatherlink.com 1.10,2013-03-05 16:11:00,
2013-03-05 11:26:00,39.1,21.0,30.02,NNW,328,1.0,9.0,49,0.00,,,0.00,weatherlink.com 1.10,2013-03-05 16:26:00,
2013-03-05 11:41:00,40.4,21.0,30.02,ESE,107,3.0,5.0,46,0.00,,,0.00,weatherlink.com 1.10,2013-03-05 16:41:00,
2013-03-05 11:56:00,40.9,20.0,30.02,NNE,15,0.0,9.0,44,0.00,,,0.00,weatherlink.com 1.10,2013-03-05 16:56:00,
2013-03-05 12:11:00,41.5,21.0,30.02,NNE,18,0.0,5.0,44,0.00,,,0.00,weatherlink.com 1.10,2013-03-05 17:11:00,
2013-03-05 12:26:00,42.2,21.0,30.02,NW,326,3.0,7.0,43,0.00,,,0.00,weatherlink.com 1.10,2013-03-05 17:26:00,
2013-03-05 12:41:00,41.9,21.0,30.00,NNE,18,5.0,6.0,43,0.00,,,0.00,weatherlink.com 1.10,2013-03-05 17:41:00,
2013-03-05 12:56:00,42.2,22.0,29.99,NNW,345,5.0,7.0,44,0.00,,,0.00,weatherlink.com 1.10,2013-03-05 17:56:00,
2013-03-05 13:11:00,42.4,21.0,29.99,North,9,2.0,8.0,42,0.00,,,0.00,weatherlink.com 1.10,2013-03-05 18:11:00,
2013-03-05 13:26:00,42.9,19.0,29.98,NNE,23,3.0,8.0,38,0.00,,,0.00,weatherlink.com 1.10,2013-03-05 18:26:00,
2013-03-05 13:41:00,43.0,17.0,29.97,NW,311,1.0,10.0,35,0.00,,,0.00,weatherlink.com 1.10,2013-03-05 18:41:00,
2013-03-05 13:56:00,44.8,20.0,29.96,SW,222,0.0,4.0,37,0.00,,,0.00,weatherlink.com 1.10,2013-03-05 18:56:00,
2013-03-05 14:11:00,45.9,21.0,29.96,SSW,210,0.0,3.0,37,0.00,,,0.00,weatherlink.com 1.10,2013-03-05 19:11:00,
2013-03-05 14:26:00,44.9,19.0,29.96,NE,37,1.0,4.0,36,0.00,,,0.00,weatherlink.com 1.10,2013-03-05 19:26:00,
2013-03-05 14:41:00,44.7,20.0,29.95,NNW,330,1.0,4.0,38,0.00,,,0.00,weatherlink.com 1.10,2013-03-05 19:41:00,
2013-03-05 14:56:00,45.1,19.0,29.95,SE,124,3.0,5.0,36,0.00,,,0.00,weatherlink.com 1.10,2013-03-05 19:56:00,
2013-03-05 15:11:00,44.7,18.0,29.94,NNW,346,0.0,5.0,35,0.00,,,0.00,weatherlink.com 1.10,2013-03-05 20:11:00,
2013-03-05 15:26:00,45.9,19.0,29.94,NNE,12,0.0,3.0,34,0.00,,,0.00,weatherlink.com 1.10,2013-03-05 20:26:00,
2013-03-05 15:41:00,46.6,19.0,29.92,North,1,3.0,3.0,34,0.00,,,0.00,weatherlink.com 1.10,2013-03-05 20:41:00,
2013-03-05 15:56:00,46.8,20.0,29.92,East,98,1.0,4.0,35,0.00,,,0.00,weatherlink.com 1.10,2013-03-05 20:56:00,
2013-03-05 16:11:00,45.3,21.0,29.92,North,11,0.0,3.0,39,0.00,,,0.00,weatherlink.com 1.10,2013-03-05 21:11:00,
2013-03-05 16:26:00,45.0,21.0,29.93,ESE,117,0.0,2.0,38,0.00,,,0.00,weatherlink.com 1.10,2013-03-05 21:26:00,
2013-03-05 16:41:00,44.5,23.0,29.93,SE,126,0.0,2.0,42,0.00,,,0.00,weatherlink.com 1.10,2013-03-05 21:41:00,
2013-03-05 16:56:00,43.8,22.0,29.93,ESE,120,0.0,1.0,43,0.00,,,0.00,weatherlink.com 1.10,2013-03-05 21:56:00,
2013-03-05 17:11:00,43.0,22.0,29.94,East,98,0.0,1.0,43,0.00,,,0.00,weatherlink.com 1.10,2013-03-05 22:11:00,
2013-03-05 17:26:00,42.0,22.0,29.93,East,98,0.0,0.0,46,0.00,,,0.00,weatherlink.com 1.10,2013-03-05 22:26:00,
2013-03-05 17:41:00,41.0,23.0,29.94,East,99,0.0,0.0,49,0.00,,,0.00,weatherlink.com 1.10,2013-03-05 22:41:00,
2013-03-05 17:56:00,40.7,24.0,29.93,East,99,0.0,0.0,51,0.00,,,0.00,weatherlink.com 1.10,2013-03-05 22:56:00,
2013-03-05 18:11:00,40.8,25.0,29.93,East,99,0.0,0.0,54,0.00,,,0.00,weatherlink.com 1.10,2013-03-05 23:11:00,
2013-03-05 18:26:00,40.8,26.0,29.93,East,99,0.0,0.0,57,0.00,,,0.00,weatherlink.com 1.10,2013-03-05 23:26:00,
2013-03-05 18:41:00,41.3,27.0,29.94,ESE,115,0.0,7.0,58,0.00,,,0.00,weatherlink.com 1.10,2013-03-05 23:41:00,
2013-03-05 18:56:00,41.1,29.0,29.93,ESE,107,0.0,5.0,63,0.00,,,0.00,weatherlink.com 1.10,2013-03-05 23:56:00,
2013-03-05 19:11:00,40.7,30.0,29.93,ESE,108,6.0,7.0,65,0.00,,,0.00,weatherlink.com 1.10,2013-03-06 00:11:00,
2013-03-05 19:26:00,40.0,30.0,29.93,East,101,2.0,7.0,67,0.00,,,0.00,weatherlink.com 1.10,2013-03-06 00:26:00,
2013-03-05 19:41:00,39.3,30.0,29.93,East,79,4.0,7.0,69,0.00,,,0.00,weatherlink.com 1.10,2013-03-06 00:41:00,
2013-03-05 19:56:00,38.6,30.0,29.92,East,93,7.0,10.0,70,0.00,,,0.00,weatherlink.com 1.10,2013-03-06 00:56:00,
2013-03-05 20:11:00,38.1,29.0,29.92,East,84,3.0,8.0,71,0.00,,,0.00,weatherlink.com 1.10,2013-03-06 01:11:00,
2013-03-05 20:26:00,37.6,29.0,29.92,East,98,3.0,7.0,72,0.00,,,0.00,weatherlink.com 1.10,2013-03-06 01:26:00,
2013-03-05 20:41:00,37.1,29.0,29.92,East,101,6.0,8.0,72,0.00,,,0.00,weatherlink.com 1.10,2013-03-06 01:41:00,
2013-03-05 20:56:00,36.8,29.0,29.91,ESE,105,4.0,10.0,72,0.00,,,0.00,weatherlink.com 1.10,2013-03-06 01:56:00,
2013-03-05 21:11:00,36.7,29.0,29.91,East,89,2.0,7.0,73,0.00,,,0.00,weatherlink.com 1.10,2013-03-06 02:11:00,
2013-03-05 21:27:00,36.4,29.0,29.90,East,91,2.0,10.0,73,0.00,,,0.00,weatherlink.com 1.10,2013-03-06 02:27:00,
2013-03-05 21:42:00,36.3,29.0,29.89,East,93,1.0,6.0,74,0.00,,,0.00,weatherlink.com 1.10,2013-03-06 02:42:00,
2013-03-05 21:57:00,36.2,28.0,29.88,East,93,6.0,7.0,73,0.00,,,0.00,weatherlink.com 1.10,2013-03-06 02:57:00,
2013-03-05 22:12:00,36.3,28.0,29.87,ESE,109,2.0,8.0,73,0.00,,,0.00,weatherlink.com 1.10,2013-03-06 03:12:00,
2013-03-05 22:27:00,36.4,28.0,29.86,ENE,77,4.0,6.0,72,0.00,,,0.00,weatherlink.com 1.10,2013-03-06 03:27:00,
2013-03-05 22:42:00,36.7,27.0,29.84,East,94,2.0,8.0,69,0.00,,,0.00,weatherlink.com 1.10,2013-03-06 03:42:00,
2013-03-05 22:57:00,36.9,27.0,29.83,East,84,4.0,7.0,67,0.00,,,0.00,weatherlink.com 1.10,2013-03-06 03:57:00,
2013-03-05 23:12:00,37.1,27.0,29.83,NE,48,3.0,9.0,67,0.00,,,0.00,weatherlink.com 1.10,2013-03-06 04:12:00,
2013-03-05 23:27:00,37.0,27.0,29.81,East,92,1.0,6.0,68,0.00,,,0.00,weatherlink.com 1.10,2013-03-06 04:27:00,
2013-03-05 23:42:00,37.1,28.0,29.80,ESE,111,5.0,10.0,69,0.00,,,0.00,weatherlink.com 1.10,2013-03-06 04:42:00,
2013-03-05 23:57:00,37.1,28.0,29.79,East,89,2.0,10.0,69,0.00,,,0.00,weatherlink.com 1.10,2013-03-06 04:57:00,